createdAt,value
2023-03-20T00:02:55.898Z,7.20
2023-03-20T00:05:58.654Z,8.20
2023-03-20T00:09:07.218Z,6.40
2023-03-20T00:12:16.533Z,6.70
2023-03-20T00:15:28.716Z,7.00
2023-03-20T00:21:34.409Z,6.80
2023-03-20T00:24:37.283Z,7.30
2023-03-20T00:27:40.268Z,7.80
2023-03-20T00:30:43.067Z,6.80
2023-03-20T00:33:46.008Z,6.60
2023-03-20T00:36:49.049Z,5.40
2023-03-20T00:39:51.790Z,5.70
2023-03-20T00:43:02.122Z,5.80
2023-03-20T00:46:05.077Z,7.20
2023-03-20T00:49:11.893Z,6.10
2023-03-20T00:52:17.021Z,5.90
2023-03-20T00:55:22.480Z,4.50
2023-03-20T00:58:25.569Z,5.10
2023-03-20T01:01:29.464Z,5.60
2023-03-20T01:04:42.603Z,4.50
2023-03-20T01:07:46.003Z,5.70
2023-03-20T01:10:53.240Z,5.30
2023-03-20T01:13:56.367Z,5.60
2023-03-20T01:16:59.127Z,6.00
2023-03-20T01:20:01.905Z,4.90
2023-03-20T01:23:04.795Z,4.70
2023-03-20T01:26:27.676Z,7.40
2023-03-20T01:29:31.836Z,4.90
2023-03-20T01:32:34.749Z,4.80
2023-03-20T01:35:38.201Z,4.70
2023-03-20T01:38:41.960Z,5.90
2023-03-20T01:41:45.432Z,5.20
2023-03-20T01:44:48.736Z,5.80
2023-03-20T01:47:52.197Z,5.00
2023-03-20T01:50:55.004Z,7.40
2023-03-20T01:54:02.870Z,5.80
2023-03-20T01:57:16.627Z,5.10
2023-03-20T02:00:19.812Z,4.60
2023-03-20T02:03:23.673Z,5.00
2023-03-20T02:06:27.011Z,6.30
2023-03-20T02:09:29.920Z,4.90
2023-03-20T02:12:33.698Z,4.40
2023-03-20T02:15:37.312Z,4.90
2023-03-20T02:18:43.367Z,5.00
2023-03-20T02:22:14.528Z,4.80
2023-03-20T02:25:30.600Z,4.60
2023-03-20T02:29:03.925Z,4.70
2023-03-20T02:32:16.502Z,5.30
2023-03-20T02:35:28.629Z,5.10
2023-03-20T02:38:37.294Z,5.20
2023-03-20T02:41:46.403Z,5.40
2023-03-20T02:45:08.329Z,5.60
2023-03-20T02:48:27.818Z,5.30
2023-03-20T02:51:46.462Z,4.90
2023-03-20T02:55:00.434Z,5.30
2023-03-20T02:58:14.307Z,5.40
2023-03-20T03:01:46.571Z,4.90
2023-03-20T03:04:57.171Z,5.30
2023-03-20T03:08:03.389Z,6.00
2023-03-20T03:11:09.352Z,4.60
2023-03-20T03:14:20.993Z,5.00
2023-03-20T03:17:27.533Z,4.50
2023-03-20T03:20:35.013Z,4.60
2023-03-20T03:23:45.503Z,4.40
2023-03-20T03:26:48.865Z,4.70
2023-03-20T03:29:58.724Z,4.60
2023-03-20T03:33:22.020Z,4.60
2023-03-20T03:36:30.764Z,3.90
2023-03-20T03:39:36.747Z,5.20
2023-03-20T03:42:48.180Z,4.50
2023-03-20T03:46:01.340Z,6.90
2023-03-20T03:49:06.983Z,7.10
2023-03-20T03:52:15.561Z,5.40
2023-03-20T03:55:28.176Z,5.90
2023-03-20T03:58:42.087Z,5.60
2023-03-20T04:01:46.608Z,5.70
2023-03-20T04:04:53.040Z,5.80
2023-03-20T04:07:58.365Z,6.60
2023-03-20T04:11:01.430Z,5.00
2023-03-20T04:14:04.424Z,4.60
2023-03-20T04:17:07.236Z,5.60
2023-03-20T04:20:11.279Z,4.70
2023-03-20T04:23:14.832Z,5.10
2023-03-20T04:26:17.733Z,4.40
2023-03-20T04:29:20.672Z,4.80
2023-03-20T04:32:24.073Z,5.10
2023-03-20T04:35:26.846Z,4.80
2023-03-20T04:38:29.664Z,5.40
2023-03-20T04:41:32.435Z,5.30
2023-03-20T04:44:35.433Z,5.10
2023-03-20T04:47:38.329Z,5.70
2023-03-20T04:50:41.392Z,5.20
2023-03-20T04:53:44.217Z,5.30
2023-03-20T04:56:47.095Z,5.20
2023-03-20T04:59:49.890Z,5.70
2023-03-20T05:02:52.736Z,5.60
2023-03-20T05:05:55.659Z,5.50
2023-03-20T05:08:59.573Z,6.20
2023-03-20T05:12:02.541Z,5.40
2023-03-20T05:15:05.893Z,5.70
2023-03-20T05:18:09.837Z,6.80
2023-03-20T05:21:12.777Z,5.30
2023-03-20T05:24:15.679Z,5.90
2023-03-20T05:27:19.067Z,4.50
2023-03-20T05:30:22.254Z,5.20
2023-03-20T05:33:25.462Z,7.10
2023-03-20T05:36:28.359Z,6.40
2023-03-20T05:39:31.305Z,8.20
2023-03-20T05:42:34.254Z,6.80
2023-03-20T05:45:37.237Z,9.30
2023-03-20T05:48:40.144Z,7.90
2023-03-20T05:51:43.190Z,7.70
2023-03-20T05:54:46.105Z,8.20
2023-03-20T05:57:49.072Z,9.30
2023-03-20T06:00:52.475Z,10.90
2023-03-20T06:03:55.481Z,8.40
2023-03-20T06:06:58.558Z,10.20
2023-03-20T06:10:01.634Z,10.30
2023-03-20T06:13:04.501Z,8.70
2023-03-20T06:16:08.194Z,8.30
2023-03-20T06:19:11.809Z,7.50
2023-03-20T06:22:14.833Z,7.80
2023-03-20T06:25:18.444Z,7.60
2023-03-20T06:28:21.702Z,7.40
2023-03-20T06:31:24.647Z,7.50
2023-03-20T06:34:27.894Z,7.50
2023-03-20T06:37:31.110Z,7.80
2023-03-20T06:40:34.073Z,7.70
2023-03-20T06:43:37.373Z,7.00
2023-03-20T06:46:40.550Z,6.40
2023-03-20T06:49:45.890Z,7.70
2023-03-20T06:52:49.019Z,7.60
2023-03-20T06:55:52.129Z,7.50
2023-03-20T06:58:55.032Z,8.40
2023-03-20T07:01:59.118Z,8.70
2023-03-20T07:05:03.522Z,9.60
2023-03-20T07:08:07.862Z,9.10
2023-03-20T07:11:11.514Z,9.90
2023-03-20T07:14:15.588Z,9.10
2023-03-20T07:17:18.548Z,8.30
2023-03-20T07:20:21.993Z,6.70
2023-03-20T07:23:25.031Z,9.10
2023-03-20T07:26:27.981Z,11.80
2023-03-20T07:29:31.292Z,8.50
2023-03-20T07:32:37.562Z,9.50
2023-03-20T07:35:41.023Z,9.80
2023-03-20T07:38:44.010Z,10.70
2023-03-20T07:41:47.555Z,11.00
2023-03-20T07:44:50.447Z,9.60
2023-03-20T07:47:53.417Z,9.80
2023-03-20T07:50:56.409Z,9.40
2023-03-20T07:53:59.357Z,10.00
2023-03-20T07:57:02.399Z,8.70
2023-03-20T08:00:05.921Z,7.60
2023-03-20T08:03:09.451Z,8.60
2023-03-20T08:06:12.380Z,10.60
2023-03-20T08:09:16.366Z,12.70
2023-03-20T08:12:19.506Z,12.40
2023-03-20T08:15:22.539Z,11.90
2023-03-20T08:18:25.644Z,10.20
2023-03-20T08:21:30.012Z,11.20
2023-03-20T08:24:33.057Z,10.70
2023-03-20T08:27:36.890Z,9.40
2023-03-20T08:30:39.835Z,11.20
2023-03-20T08:33:42.846Z,10.70
2023-03-20T08:36:45.876Z,10.30
2023-03-20T08:39:48.829Z,10.70
2023-03-20T08:42:51.750Z,10.40
2023-03-20T08:45:55.259Z,30.50
2023-03-20T08:48:59.243Z,37.00
2023-03-20T08:52:02.256Z,12.90
2023-03-20T08:55:06.955Z,11.70
2023-03-20T08:58:09.785Z,17.60
2023-03-20T09:01:12.892Z,13.90
2023-03-20T09:04:16.016Z,10.20
2023-03-20T09:07:19.039Z,11.30
2023-03-20T09:10:22.017Z,10.70
2023-03-20T09:13:27.483Z,10.30
2023-03-20T09:16:30.897Z,11.20
2023-03-20T09:19:34.757Z,12.10
2023-03-20T09:22:37.678Z,10.20
2023-03-20T09:25:40.945Z,12.70
2023-03-20T09:28:43.864Z,11.10
2023-03-20T09:31:46.707Z,10.90
2023-03-20T09:34:49.735Z,11.00
2023-03-20T09:37:52.884Z,11.00
2023-03-20T09:41:03.641Z,12.80
2023-03-20T09:44:18.388Z,14.30
2023-03-20T09:47:25.118Z,13.70
2023-03-20T09:50:35.634Z,13.10
2023-03-20T09:53:42.261Z,12.00
2023-03-20T09:56:45.880Z,14.10
2023-03-20T09:59:55.238Z,13.00
2023-03-20T10:03:02.645Z,11.10
2023-03-20T10:06:12.797Z,12.70
2023-03-20T10:09:21.215Z,11.10
2023-03-20T10:13:00.393Z,10.40
2023-03-20T10:16:31.842Z,10.70
2023-03-20T10:20:14.320Z,13.30
2023-03-20T10:23:27.352Z,13.20
2023-03-20T10:26:35.216Z,14.00
2023-03-20T10:29:55.723Z,15.00
2023-03-20T10:33:12.620Z,14.90
2023-03-20T10:36:23.779Z,13.60
2023-03-20T10:39:50.550Z,13.50
2023-03-20T10:42:59.316Z,12.90
2023-03-20T10:46:16.229Z,14.90
2023-03-20T10:49:30.105Z,12.40
2023-03-20T10:52:38.445Z,9.80
2023-03-20T10:55:43.636Z,11.50
2023-03-20T10:58:50.529Z,15.30
2023-03-20T11:01:54.234Z,12.00
2023-03-20T11:05:00.021Z,13.00
2023-03-20T11:08:03.005Z,9.50
2023-03-20T11:11:06.122Z,10.10
2023-03-20T11:14:24.306Z,10.20
2023-03-20T11:17:30.496Z,10.50
2023-03-20T11:20:54.176Z,12.00
2023-03-20T11:23:57.470Z,13.50
2023-03-20T11:27:12.911Z,12.50
2023-03-20T11:30:18.548Z,12.70
2023-03-20T11:33:21.787Z,11.50
2023-03-20T11:36:30.281Z,11.70
2023-03-20T11:39:34.105Z,11.70
2023-03-20T11:42:37.379Z,8.80
2023-03-20T11:45:43.187Z,9.10
2023-03-20T11:48:47.229Z,11.30
2023-03-20T11:51:50.687Z,12.90
2023-03-20T11:54:58.141Z,12.60
2023-03-20T11:58:09.980Z,13.20
2023-03-20T12:01:13.164Z,10.60
2023-03-20T12:04:17.410Z,12.50
2023-03-20T12:07:34.807Z,13.00
2023-03-20T12:10:42.987Z,14.90
2023-03-20T12:13:49.037Z,15.90
2023-03-20T12:17:00.593Z,15.30
2023-03-20T12:20:17.327Z,12.80
2023-03-20T12:23:44.003Z,15.20
2023-03-20T12:27:11.676Z,13.90
2023-03-20T12:30:22.899Z,15.70
2023-03-20T12:33:58.988Z,16.40
2023-03-20T12:37:02.446Z,15.30
2023-03-20T12:40:06.412Z,17.60
2023-03-20T12:43:34.696Z,17.40
2023-03-20T12:47:16.629Z,15.60
2023-03-20T12:50:33.747Z,17.60
2023-03-20T12:54:06.450Z,16.50
2023-03-20T12:57:27.619Z,16.30
2023-03-20T13:00:40.589Z,17.30
2023-03-20T13:03:52.402Z,15.80
2023-03-20T13:07:00.419Z,15.20
2023-03-20T13:10:21.359Z,14.50
2023-03-20T13:13:35.828Z,13.20
2023-03-20T13:17:17.023Z,16.00
2023-03-20T13:20:46.337Z,17.00
2023-03-20T13:27:21.316Z,16.00
2023-03-20T13:30:34.724Z,13.10
2023-03-20T13:33:46.818Z,15.70
2023-03-20T13:37:23.482Z,17.10
2023-03-20T13:40:32.712Z,15.30
2023-03-20T13:43:43.324Z,16.50
2023-03-20T13:47:00.312Z,14.10
2023-03-20T13:50:27.567Z,15.20
2023-03-20T13:53:40.228Z,15.40
2023-03-20T13:56:59.768Z,18.00
2023-03-20T14:00:09.616Z,16.00
2023-03-20T14:03:27.639Z,16.00
2023-03-20T14:06:30.470Z,27.50
2023-03-20T14:09:34.388Z,19.50
2023-03-20T14:12:37.212Z,14.80
2023-03-20T14:15:48.001Z,14.60
2023-03-20T14:19:10.524Z,17.60
2023-03-20T14:22:21.243Z,11.90
2023-03-20T14:25:25.124Z,13.30
2023-03-20T14:28:34.157Z,9.70
2023-03-20T14:31:42.421Z,12.20
2023-03-20T14:34:52.081Z,13.90
2023-03-20T14:38:19.294Z,10.70
2023-03-20T14:41:50.045Z,11.40
2023-03-20T14:45:31.650Z,11.70
2023-03-20T14:48:44.617Z,12.70
2023-03-20T14:51:50.831Z,12.00
2023-03-20T14:54:54.976Z,10.90
2023-03-20T14:58:04.486Z,12.70
2023-03-20T15:01:21.738Z,12.10
2023-03-20T15:04:45.337Z,9.80
2023-03-20T15:07:48.167Z,9.50
2023-03-20T15:11:02.797Z,9.90
2023-03-20T15:14:09.550Z,9.90
2023-03-20T15:17:24.188Z,11.60
2023-03-20T15:20:30.336Z,9.20
2023-03-20T15:23:34.297Z,9.90
2023-03-20T15:26:37.945Z,8.90
2023-03-20T15:29:48.910Z,10.30
2023-03-20T15:32:55.332Z,10.70
2023-03-20T15:35:59.079Z,10.10
2023-03-20T15:39:18.017Z,10.90
2023-03-20T15:42:23.544Z,9.80
2023-03-20T15:45:36.354Z,11.30
2023-03-20T15:48:41.073Z,10.30
2023-03-20T15:51:43.985Z,10.70
2023-03-20T15:54:48.992Z,11.00
2023-03-20T15:57:55.946Z,8.90
2023-03-20T16:01:40.592Z,9.80
2023-03-20T16:10:45.089Z,9.90
2023-03-20T16:14:56.156Z,10.60
2023-03-20T16:18:59.321Z,10.40
2023-03-20T16:23:03.362Z,10.30
2023-03-20T16:26:38.229Z,10.50
2023-03-20T16:30:18.157Z,10.10
2023-03-20T16:34:22.144Z,9.80
2023-03-20T16:38:47.805Z,9.20
2023-03-20T16:43:01.624Z,9.00
2023-03-20T16:46:57.294Z,9.30
2023-03-20T16:50:58.999Z,9.70
2023-03-20T16:55:15.311Z,11.60
2023-03-20T16:59:23.630Z,15.90
2023-03-20T17:03:48.116Z,13.30
2023-03-20T17:08:15.159Z,17.60
2023-03-20T17:13:09.769Z,22.80
2023-03-20T17:17:31.619Z,13.50
2023-03-20T17:21:36.273Z,16.20
2023-03-20T17:25:33.786Z,17.10
2023-03-20T17:29:41.907Z,20.80
2023-03-20T17:33:58.670Z,24.90
2023-03-20T17:38:05.132Z,30.50
2023-03-20T17:42:26.061Z,29.30
2023-03-20T17:46:30.097Z,28.10
2023-03-20T17:50:55.303Z,28.50
2023-03-20T17:55:39.850Z,30.20
2023-03-20T18:00:08.828Z,32.00
2023-03-20T18:04:28.294Z,28.90
2023-03-20T18:08:32.057Z,33.70
2023-03-20T18:12:44.526Z,38.70
2023-03-20T18:17:08.189Z,38.30
2023-03-20T18:21:33.071Z,43.20
2023-03-20T18:25:48.390Z,38.90
2023-03-20T18:30:29.474Z,36.30
2023-03-20T18:34:57.261Z,31.40
2023-03-20T18:39:00.861Z,30.30
2023-03-20T18:43:04.616Z,42.60
2023-03-20T18:46:59.261Z,37.10
2023-03-20T18:51:01.166Z,37.60
2023-03-20T18:54:53.720Z,46.20
2023-03-20T18:59:00.286Z,33.20
2023-03-20T19:02:39.534Z,31.80
2023-03-20T19:05:43.403Z,30.20
2023-03-20T19:09:36.361Z,25.90
2023-03-20T19:13:32.670Z,27.40
2023-03-20T19:17:20.660Z,20.20
2023-03-20T19:21:30.247Z,21.20
2023-03-20T19:25:26.632Z,13.70
2023-03-20T19:29:20.498Z,28.50
2023-03-20T19:33:24.219Z,26.00
2023-03-20T19:37:13.256Z,20.00
2023-03-20T19:41:15.096Z,20.10
2023-03-20T19:45:10.360Z,23.20
2023-03-20T19:49:00.079Z,20.40
2023-03-20T19:52:53.631Z,21.30
2023-03-20T19:56:54.556Z,21.30
2023-03-20T20:00:59.812Z,21.20
2023-03-20T20:05:03.772Z,15.80
2023-03-20T20:08:49.319Z,25.70
2023-03-20T20:12:28.947Z,29.90
2023-03-20T20:16:08.887Z,20.90
2023-03-20T20:19:54.726Z,24.30
2023-03-20T20:23:53.788Z,23.60
2023-03-20T20:27:49.229Z,18.80
2023-03-20T20:31:31.548Z,14.50
2023-03-20T20:39:26.730Z,15.00
2023-03-20T20:42:53.653Z,18.20
2023-03-20T20:46:36.127Z,20.60
2023-03-20T20:50:09.822Z,18.80
2023-03-20T20:53:48.966Z,17.80
2023-03-20T20:57:25.075Z,17.40
2023-03-20T21:01:02.197Z,19.10
2023-03-20T21:04:49.981Z,19.00
2023-03-20T21:08:52.707Z,16.20
2023-03-20T21:12:57.761Z,14.20
2023-03-20T21:16:52.531Z,21.90
2023-03-20T21:20:37.949Z,17.60
2023-03-20T21:24:31.177Z,19.00
2023-03-20T21:28:28.267Z,20.40
2023-03-20T21:32:17.555Z,24.00
2023-03-20T21:36:21.294Z,27.30
2023-03-20T21:40:25.012Z,27.90
2023-03-20T21:44:03.863Z,26.30
2023-03-20T21:48:35.046Z,18.10
2023-03-20T21:52:37.445Z,24.80
2023-03-20T22:09:30.723Z,20.40
2023-03-20T22:12:55.968Z,15.50
2023-03-20T22:17:22.015Z,20.70
2023-03-20T22:21:29.647Z,20.50
2023-03-20T22:30:00.533Z,24.00
2023-03-20T22:34:28.463Z,22.80
2023-03-20T22:38:08.958Z,21.20
2023-03-20T22:45:52.641Z,19.40
2023-03-20T22:50:00.376Z,22.00
2023-03-20T22:53:46.882Z,20.90
2023-03-20T22:57:42.289Z,22.50
2023-03-20T23:01:47.431Z,20.00
2023-03-20T23:05:44.000Z,20.10
2023-03-20T23:09:46.429Z,18.00
2023-03-20T23:13:46.205Z,14.00
2023-03-20T23:17:42.074Z,15.40
2023-03-20T23:21:29.629Z,12.40
2023-03-20T23:29:34.610Z,14.50
2023-03-20T23:33:16.251Z,13.70
2023-03-20T23:37:06.138Z,15.00
2023-03-20T23:40:50.127Z,18.20
2023-03-20T23:44:56.373Z,16.20
2023-03-20T23:49:02.284Z,18.20
2023-03-20T23:53:01.125Z,20.60
2023-03-20T23:57:10.335Z,13.70
